sensor_id;sensor_type;location;lat;lon;timestamp;P1;durP1;ratioP1;P2;durP2;ratioP2
60588;SDS011;46421;48.610;9.334;2022-07-25T00:01:48;0.20;;;0.20;;
60588;SDS011;46421;48.610;9.334;2022-07-25T00:04:14;0.20;;;0.20;;
60588;SDS011;46421;48.610;9.334;2022-07-25T00:06:40;0.20;;;0.20;;
60588;SDS011;46421;48.610;9.334;2022-07-25T00:09:06;0.10;;;0.10;;
60588;SDS011;46421;48.610;9.334;2022-07-25T00:11:31;0.20;;;0.20;;
60588;SDS011;46421;48.610;9.334;2022-07-25T00:13:57;0.10;;;0.10;;
60588;SDS011;46421;48.610;9.334;2022-07-25T00:16:22;0.10;;;0.10;;
60588;SDS011;46421;48.610;9.334;2022-07-25T00:18:47;0.13;;;0.13;;
60588;SDS011;46421;48.610;9.334;2022-07-25T00:21:12;0.20;;;0.20;;
60588;SDS011;46421;48.610;9.334;2022-07-25T00:23:38;0.10;;;0.10;;
60588;SDS011;46421;48.610;9.334;2022-07-25T00:26:03;0.20;;;0.20;;
60588;SDS011;46421;48.610;9.334;2022-07-25T00:28:29;0.10;;;0.10;;
60588;SDS011;46421;48.610;9.334;2022-07-25T00:30:54;0.20;;;0.20;;
60588;SDS011;46421;48.610;9.334;2022-07-25T00:33:19;0.10;;;0.10;;
60588;SDS011;46421;48.610;9.334;2022-07-25T00:35:45;0.20;;;0.20;;
60588;SDS011;46421;48.610;9.334;2022-07-25T00:38:10;0.10;;;0.10;;
60588;SDS011;46421;48.610;9.334;2022-07-25T00:40:35;0.20;;;0.20;;
60588;SDS011;46421;48.610;9.334;2022-07-25T00:43:01;0.32;;;0.32;;
60588;SDS011;46421;48.610;9.334;2022-07-25T00:45:26;0.10;;;0.10;;
60588;SDS011;46421;48.610;9.334;2022-07-25T00:47:52;0.13;;;0.13;;
60588;SDS011;46421;48.610;9.334;2022-07-25T00:50:17;0.20;;;0.20;;
60588;SDS011;46421;48.610;9.334;2022-07-25T00:52:43;0.20;;;0.20;;
60588;SDS011;46421;48.610;9.334;2022-07-25T00:55:08;0.20;;;0.20;;
60588;SDS011;46421;48.610;9.334;2022-07-25T00:57:34;0.20;;;0.20;;
60588;SDS011;46421;48.610;9.334;2022-07-25T00:59:59;0.15;;;0.15;;
60588;SDS011;46421;48.610;9.334;2022-07-25T01:02:24;0.20;;;0.20;;
60588;SDS011;46421;48.610;9.334;2022-07-25T01:04:50;0.10;;;0.10;;
60588;SDS011;46421;48.610;9.334;2022-07-25T01:07:15;0.20;;;0.20;;
60588;SDS011;46421;48.610;9.334;2022-07-25T01:09:40;0.20;;;0.20;;
60588;SDS011;46421;48.610;9.334;2022-07-25T01:12:06;0.20;;;0.20;;
60588;SDS011;46421;48.610;9.334;2022-07-25T01:14:31;0.20;;;0.20;;
60588;SDS011;46421;48.610;9.334;2022-07-25T01:16:56;0.10;;;0.10;;
60588;SDS011;46421;48.610;9.334;2022-07-25T01:19:22;0.20;;;0.20;;
60588;SDS011;46421;48.610;9.334;2022-07-25T01:21:47;0.10;;;0.10;;
60588;SDS011;46421;48.610;9.334;2022-07-25T01:24:12;0.20;;;0.20;;
60588;SDS011;46421;48.610;9.334;2022-07-25T01:26:38;0.20;;;0.20;;
60588;SDS011;46421;48.610;9.334;2022-07-25T01:29:03;0.15;;;0.15;;
60588;SDS011;46421;48.610;9.334;2022-07-25T01:31:29;0.30;;;0.30;;
60588;SDS011;46421;48.610;9.334;2022-07-25T01:33:54;0.20;;;0.20;;
60588;SDS011;46421;48.610;9.334;2022-07-25T01:36:19;0.20;;;0.20;;
60588;SDS011;46421;48.610;9.334;2022-07-25T01:38:45;0.13;;;0.13;;
60588;SDS011;46421;48.610;9.334;2022-07-25T01:41:10;0.20;;;0.20;;
60588;SDS011;46421;48.610;9.334;2022-07-25T01:43:35;0.20;;;0.20;;
60588;SDS011;46421;48.610;9.334;2022-07-25T01:46:01;0.17;;;0.17;;
60588;SDS011;46421;48.610;9.334;2022-07-25T01:48:26;0.23;;;0.23;;
60588;SDS011;46421;48.610;9.334;2022-07-25T01:50:51;0.20;;;0.20;;
60588;SDS011;46421;48.610;9.334;2022-07-25T01:53:17;0.13;;;0.13;;
60588;SDS011;46421;48.610;9.334;2022-07-25T01:55:45;0.20;;;0.20;;
60588;SDS011;46421;48.610;9.334;2022-07-25T01:58:11;0.20;;;0.20;;
60588;SDS011;46421;48.610;9.334;2022-07-25T02:00:36;0.22;;;0.22;;
60588;SDS011;46421;48.610;9.334;2022-07-25T02:03:01;0.15;;;0.15;;
60588;SDS011;46421;48.610;9.334;2022-07-25T02:05:27;0.22;;;0.22;;
60588;SDS011;46421;48.610;9.334;2022-07-25T02:07:52;0.28;;;0.28;;
60588;SDS011;46421;48.610;9.334;2022-07-25T02:10:17;0.20;;;0.20;;
60588;SDS011;46421;48.610;9.334;2022-07-25T02:12:43;0.30;;;0.30;;
60588;SDS011;46421;48.610;9.334;2022-07-25T02:15:08;0.20;;;0.20;;
60588;SDS011;46421;48.610;9.334;2022-07-25T02:17:33;0.25;;;0.25;;
60588;SDS011;46421;48.610;9.334;2022-07-25T02:19:59;0.10;;;0.10;;
60588;SDS011;46421;48.610;9.334;2022-07-25T02:22:24;0.20;;;0.20;;
60588;SDS011;46421;48.610;9.334;2022-07-25T02:24:49;0.30;;;0.30;;
60588;SDS011;46421;48.610;9.334;2022-07-25T02:27:15;0.10;;;0.10;;
60588;SDS011;46421;48.610;9.334;2022-07-25T02:29:40;0.10;;;0.10;;
60588;SDS011;46421;48.610;9.334;2022-07-25T02:32:05;0.20;;;0.20;;
60588;SDS011;46421;48.610;9.334;2022-07-25T02:34:30;0.20;;;0.20;;
60588;SDS011;46421;48.610;9.334;2022-07-25T02:36:56;0.10;;;0.10;;
60588;SDS011;46421;48.610;9.334;2022-07-25T02:39:21;0.20;;;0.20;;
60588;SDS011;46421;48.610;9.334;2022-07-25T02:41:46;0.20;;;0.20;;
60588;SDS011;46421;48.610;9.334;2022-07-25T02:44:11;0.20;;;0.20;;
60588;SDS011;46421;48.610;9.334;2022-07-25T02:46:37;0.20;;;0.20;;
60588;SDS011;46421;48.610;9.334;2022-07-25T02:49:02;0.20;;;0.20;;
60588;SDS011;46421;48.610;9.334;2022-07-25T02:51:27;0.20;;;0.20;;
60588;SDS011;46421;48.610;9.334;2022-07-25T02:53:53;0.20;;;0.20;;
60588;SDS011;46421;48.610;9.334;2022-07-25T02:56:18;0.27;;;0.27;;
60588;SDS011;46421;48.610;9.334;2022-07-25T02:58:43;0.10;;;0.10;;
60588;SDS011;46421;48.610;9.334;2022-07-25T03:01:09;0.30;;;0.30;;
60588;SDS011;46421;48.610;9.334;2022-07-25T03:03:34;0.20;;;0.20;;
60588;SDS011;46421;48.610;9.334;2022-07-25T03:05:59;0.30;;;0.30;;
60588;SDS011;46421;48.610;9.334;2022-07-25T03:08:25;0.10;;;0.10;;
60588;SDS011;46421;48.610;9.334;2022-07-25T03:10:50;0.20;;;0.20;;
60588;SDS011;46421;48.610;9.334;2022-07-25T03:13:15;0.20;;;0.20;;
60588;SDS011;46421;48.610;9.334;2022-07-25T03:15:40;0.30;;;0.30;;
60588;SDS011;46421;48.610;9.334;2022-07-25T03:18:06;0.30;;;0.30;;
60588;SDS011;46421;48.610;9.334;2022-07-25T03:20:31;0.10;;;0.10;;
60588;SDS011;46421;48.610;9.334;2022-07-25T03:22:56;0.22;;;0.22;;
60588;SDS011;46421;48.610;9.334;2022-07-25T03:25:22;0.30;;;0.30;;
60588;SDS011;46421;48.610;9.334;2022-07-25T03:27:47;0.20;;;0.20;;
60588;SDS011;46421;48.610;9.334;2022-07-25T03:30:13;0.20;;;0.20;;
60588;SDS011;46421;48.610;9.334;2022-07-25T03:32:38;0.20;;;0.20;;
60588;SDS011;46421;48.610;9.334;2022-07-25T03:35:05;0.20;;;0.20;;
60588;SDS011;46421;48.610;9.334;2022-07-25T03:37:31;0.20;;;0.20;;
60588;SDS011;46421;48.610;9.334;2022-07-25T03:39:56;0.20;;;0.20;;
60588;SDS011;46421;48.610;9.334;2022-07-25T03:42:21;0.20;;;0.20;;
60588;SDS011;46421;48.610;9.334;2022-07-25T03:44:46;0.30;;;0.30;;
60588;SDS011;46421;48.610;9.334;2022-07-25T03:47:12;0.20;;;0.20;;
60588;SDS011;46421;48.610;9.334;2022-07-25T03:49:37;0.20;;;0.20;;
60588;SDS011;46421;48.610;9.334;2022-07-25T03:52:02;0.20;;;0.20;;
60588;SDS011;46421;48.610;9.334;2022-07-25T03:54:28;0.30;;;0.30;;
60588;SDS011;46421;48.610;9.334;2022-07-25T03:56:53;0.25;;;0.25;;
60588;SDS011;46421;48.610;9.334;2022-07-25T03:59:19;0.20;;;0.20;;
60588;SDS011;46421;48.610;9.334;2022-07-25T04:01:46;0.10;;;0.10;;
60588;SDS011;46421;48.610;9.334;2022-07-25T04:04:12;0.20;;;0.20;;
60588;SDS011;46421;48.610;9.334;2022-07-25T04:06:39;0.20;;;0.20;;
60588;SDS011;46421;48.610;9.334;2022-07-25T04:09:05;0.10;;;0.10;;
60588;SDS011;46421;48.610;9.334;2022-07-25T04:11:31;0.20;;;0.20;;
60588;SDS011;46421;48.610;9.334;2022-07-25T04:13:57;0.10;;;0.10;;
60588;SDS011;46421;48.610;9.334;2022-07-25T04:16:23;0.10;;;0.10;;
60588;SDS011;46421;48.610;9.334;2022-07-25T04:18:49;0.20;;;0.20;;
60588;SDS011;46421;48.610;9.334;2022-07-25T04:21:15;0.30;;;0.30;;
60588;SDS011;46421;48.610;9.334;2022-07-25T04:23:40;0.30;;;0.30;;
60588;SDS011;46421;48.610;9.334;2022-07-25T04:26:05;0.20;;;0.20;;
60588;SDS011;46421;48.610;9.334;2022-07-25T04:28:31;0.17;;;0.17;;
60588;SDS011;46421;48.610;9.334;2022-07-25T04:30:56;0.20;;;0.20;;
60588;SDS011;46421;48.610;9.334;2022-07-25T04:33:22;0.20;;;0.20;;
60588;SDS011;46421;48.610;9.334;2022-07-25T04:35:47;0.20;;;0.20;;
60588;SDS011;46421;48.610;9.334;2022-07-25T04:38:13;0.22;;;0.22;;
60588;SDS011;46421;48.610;9.334;2022-07-25T04:40:38;0.10;;;0.10;;
60588;SDS011;46421;48.610;9.334;2022-07-25T04:43:04;0.13;;;0.13;;
60588;SDS011;46421;48.610;9.334;2022-07-25T04:45:30;0.20;;;0.20;;
60588;SDS011;46421;48.610;9.334;2022-07-25T04:47:55;0.17;;;0.17;;
60588;SDS011;46421;48.610;9.334;2022-07-25T04:50:21;0.20;;;0.20;;
60588;SDS011;46421;48.610;9.334;2022-07-25T04:52:46;0.20;;;0.20;;
60588;SDS011;46421;48.610;9.334;2022-07-25T04:55:12;0.20;;;0.20;;
60588;SDS011;46421;48.610;9.334;2022-07-25T04:57:37;0.28;;;0.28;;
60588;SDS011;46421;48.610;9.334;2022-07-25T05:00:06;0.20;;;0.20;;
60588;SDS011;46421;48.610;9.334;2022-07-25T05:02:33;0.20;;;0.20;;
60588;SDS011;46421;48.610;9.334;2022-07-25T05:04:59;0.10;;;0.10;;
60588;SDS011;46421;48.610;9.334;2022-07-25T05:07:24;0.20;;;0.20;;
60588;SDS011;46421;48.610;9.334;2022-07-25T05:09:50;0.10;;;0.10;;
60588;SDS011;46421;48.610;9.334;2022-07-25T05:12:15;0.20;;;0.20;;
60588;SDS011;46421;48.610;9.334;2022-07-25T05:14:40;0.20;;;0.20;;
60588;SDS011;46421;48.610;9.334;2022-07-25T05:17:05;0.20;;;0.20;;
60588;SDS011;46421;48.610;9.334;2022-07-25T05:19:31;0.10;;;0.10;;
60588;SDS011;46421;48.610;9.334;2022-07-25T05:21:56;0.10;;;0.10;;
60588;SDS011;46421;48.610;9.334;2022-07-25T05:24:22;0.13;;;0.13;;
60588;SDS011;46421;48.610;9.334;2022-07-25T05:26:47;0.10;;;0.10;;
60588;SDS011;46421;48.610;9.334;2022-07-25T05:29:13;0.10;;;0.10;;
60588;SDS011;46421;48.610;9.334;2022-07-25T05:31:39;0.13;;;0.13;;
60588;SDS011;46421;48.610;9.334;2022-07-25T05:34:04;0.30;;;0.30;;
60588;SDS011;46421;48.610;9.334;2022-07-25T05:36:29;0.10;;;0.10;;
60588;SDS011;46421;48.610;9.334;2022-07-25T05:38:55;0.10;;;0.10;;
60588;SDS011;46421;48.610;9.334;2022-07-25T05:41:21;0.20;;;0.20;;
60588;SDS011;46421;48.610;9.334;2022-07-25T05:43:46;0.10;;;0.10;;
60588;SDS011;46421;48.610;9.334;2022-07-25T05:46:11;0.20;;;0.20;;
60588;SDS011;46421;48.610;9.334;2022-07-25T05:48:37;0.20;;;0.20;;
60588;SDS011;46421;48.610;9.334;2022-07-25T05:51:02;0.20;;;0.20;;
60588;SDS011;46421;48.610;9.334;2022-07-25T05:53:28;0.10;;;0.10;;
60588;SDS011;46421;48.610;9.334;2022-07-25T05:55:53;0.30;;;0.30;;
60588;SDS011;46421;48.610;9.334;2022-07-25T05:58:18;0.20;;;0.20;;
60588;SDS011;46421;48.610;9.334;2022-07-25T06:00:44;0.10;;;0.10;;
60588;SDS011;46421;48.610;9.334;2022-07-25T06:03:09;0.20;;;0.20;;
60588;SDS011;46421;48.610;9.334;2022-07-25T06:05:34;0.15;;;0.15;;
60588;SDS011;46421;48.610;9.334;2022-07-25T06:07:59;0.20;;;0.20;;
60588;SDS011;46421;48.610;9.334;2022-07-25T06:10:25;0.20;;;0.20;;
60588;SDS011;46421;48.610;9.334;2022-07-25T06:12:50;0.13;;;0.13;;
60588;SDS011;46421;48.610;9.334;2022-07-25T06:15:16;0.10;;;0.10;;
60588;SDS011;46421;48.610;9.334;2022-07-25T06:17:41;0.15;;;0.15;;
60588;SDS011;46421;48.610;9.334;2022-07-25T06:20:06;0.10;;;0.10;;
60588;SDS011;46421;48.610;9.334;2022-07-25T06:22:32;0.10;;;0.10;;
60588;SDS011;46421;48.610;9.334;2022-07-25T06:24:57;0.20;;;0.20;;
60588;SDS011;46421;48.610;9.334;2022-07-25T06:27:22;0.17;;;0.17;;
60588;SDS011;46421;48.610;9.334;2022-07-25T06:29:48;0.10;;;0.10;;
60588;SDS011;46421;48.610;9.334;2022-07-25T06:32:13;0.17;;;0.17;;
60588;SDS011;46421;48.610;9.334;2022-07-25T06:34:41;0.10;;;0.10;;
60588;SDS011;46421;48.610;9.334;2022-07-25T06:37:06;0.10;;;0.10;;
60588;SDS011;46421;48.610;9.334;2022-07-25T06:39:31;0.20;;;0.20;;
60588;SDS011;46421;48.610;9.334;2022-07-25T06:41:57;0.23;;;0.23;;
60588;SDS011;46421;48.610;9.334;2022-07-25T06:44:22;0.20;;;0.20;;
60588;SDS011;46421;48.610;9.334;2022-07-25T06:46:47;0.10;;;0.10;;
60588;SDS011;46421;48.610;9.334;2022-07-25T06:49:13;0.20;;;0.20;;
60588;SDS011;46421;48.610;9.334;2022-07-25T06:51:38;0.20;;;0.20;;
60588;SDS011;46421;48.610;9.334;2022-07-25T06:54:03;0.20;;;0.20;;
60588;SDS011;46421;48.610;9.334;2022-07-25T06:56:29;0.20;;;0.20;;
60588;SDS011;46421;48.610;9.334;2022-07-25T06:58:54;0.37;;;0.20;;
60588;SDS011;46421;48.610;9.334;2022-07-25T07:01:19;0.20;;;0.20;;
60588;SDS011;46421;48.610;9.334;2022-07-25T07:03:45;0.20;;;0.20;;
60588;SDS011;46421;48.610;9.334;2022-07-25T07:06:10;0.20;;;0.20;;
60588;SDS011;46421;48.610;9.334;2022-07-25T07:08:36;0.23;;;0.23;;
60588;SDS011;46421;48.610;9.334;2022-07-25T07:11:01;0.30;;;0.30;;
60588;SDS011;46421;48.610;9.334;2022-07-25T07:13:27;0.20;;;0.20;;
60588;SDS011;46421;48.610;9.334;2022-07-25T07:15:52;0.27;;;0.27;;
60588;SDS011;46421;48.610;9.334;2022-07-25T07:18:18;0.10;;;0.10;;
60588;SDS011;46421;48.610;9.334;2022-07-25T07:20:44;0.20;;;0.20;;
60588;SDS011;46421;48.610;9.334;2022-07-25T07:23:10;0.30;;;0.30;;
60588;SDS011;46421;48.610;9.334;2022-07-25T07:25:35;0.35;;;0.35;;
60588;SDS011;46421;48.610;9.334;2022-07-25T07:28:01;0.30;;;0.30;;
60588;SDS011;46421;48.610;9.334;2022-07-25T07:30:26;0.30;;;0.30;;
60588;SDS011;46421;48.610;9.334;2022-07-25T07:32:52;0.20;;;0.20;;
60588;SDS011;46421;48.610;9.334;2022-07-25T07:35:17;0.30;;;0.30;;
60588;SDS011;46421;48.610;9.334;2022-07-25T07:37:43;0.30;;;0.30;;
60588;SDS011;46421;48.610;9.334;2022-07-25T07:40:09;0.40;;;0.40;;
60588;SDS011;46421;48.610;9.334;2022-07-25T07:42:39;0.20;;;0.20;;
60588;SDS011;46421;48.610;9.334;2022-07-25T07:45:16;0.40;;;0.40;;
60588;SDS011;46421;48.610;9.334;2022-07-25T07:47:46;0.17;;;0.17;;
60588;SDS011;46421;48.610;9.334;2022-07-25T07:50:13;0.30;;;0.30;;
60588;SDS011;46421;48.610;9.334;2022-07-25T07:52:40;0.30;;;0.30;;
60588;SDS011;46421;48.610;9.334;2022-07-25T07:55:06;0.30;;;0.30;;
60588;SDS011;46421;48.610;9.334;2022-07-25T07:57:32;0.30;;;0.30;;
60588;SDS011;46421;48.610;9.334;2022-07-25T07:59:57;0.30;;;0.30;;
60588;SDS011;46421;48.610;9.334;2022-07-25T08:02:23;0.30;;;0.30;;
60588;SDS011;46421;48.610;9.334;2022-07-25T08:04:48;0.30;;;0.30;;
60588;SDS011;46421;48.610;9.334;2022-07-25T08:07:13;0.20;;;0.20;;
60588;SDS011;46421;48.610;9.334;2022-07-25T08:09:38;0.30;;;0.30;;
60588;SDS011;46421;48.610;9.334;2022-07-25T08:12:04;0.37;;;0.37;;
60588;SDS011;46421;48.610;9.334;2022-07-25T08:14:29;0.25;;;0.25;;
60588;SDS011;46421;48.610;9.334;2022-07-25T08:16:55;0.30;;;0.30;;
60588;SDS011;46421;48.610;9.334;2022-07-25T08:19:21;0.20;;;0.20;;
60588;SDS011;46421;48.610;9.334;2022-07-25T08:21:46;0.20;;;0.20;;
60588;SDS011;46421;48.610;9.334;2022-07-25T08:24:11;0.23;;;0.23;;
60588;SDS011;46421;48.610;9.334;2022-07-25T08:26:36;0.20;;;0.20;;
60588;SDS011;46421;48.610;9.334;2022-07-25T08:29:02;0.30;;;0.30;;
60588;SDS011;46421;48.610;9.334;2022-07-25T08:31:27;0.28;;;0.28;;
60588;SDS011;46421;48.610;9.334;2022-07-25T08:33:53;0.30;;;0.30;;
60588;SDS011;46421;48.610;9.334;2022-07-25T08:36:18;0.30;;;0.30;;
60588;SDS011;46421;48.610;9.334;2022-07-25T08:38:43;0.40;;;0.40;;
60588;SDS011;46421;48.610;9.334;2022-07-25T08:41:08;0.30;;;0.30;;
60588;SDS011;46421;48.610;9.334;2022-07-25T08:43:34;0.23;;;0.23;;
60588;SDS011;46421;48.610;9.334;2022-07-25T08:46:00;0.30;;;0.30;;
60588;SDS011;46421;48.610;9.334;2022-07-25T08:48:26;0.40;;;0.40;;
60588;SDS011;46421;48.610;9.334;2022-07-25T08:50:52;0.30;;;0.30;;
60588;SDS011;46421;48.610;9.334;2022-07-25T08:53:19;0.30;;;0.30;;
60588;SDS011;46421;48.610;9.334;2022-07-25T08:55:46;0.30;;;0.30;;
60588;SDS011;46421;48.610;9.334;2022-07-25T08:58:12;0.38;;;0.38;;
60588;SDS011;46421;48.610;9.334;2022-07-25T09:00:38;0.35;;;0.35;;
60588;SDS011;46421;48.610;9.334;2022-07-25T09:03:05;0.32;;;0.32;;
60588;SDS011;46421;48.610;9.334;2022-07-25T09:05:30;0.20;;;0.20;;
60588;SDS011;46421;48.610;9.334;2022-07-25T09:08:04;0.30;;;0.30;;
60588;SDS011;46421;48.610;9.334;2022-07-25T09:10:32;0.40;;;0.40;;
60588;SDS011;46421;48.610;9.334;2022-07-25T09:12:58;0.30;;;0.30;;
60588;SDS011;46421;48.610;9.334;2022-07-25T09:18:02;0.30;;;0.30;;
60588;SDS011;46421;48.610;9.334;2022-07-25T09:20:36;0.20;;;0.20;;
60588;SDS011;46421;48.610;9.334;2022-07-25T09:23:02;0.38;;;0.38;;
60588;SDS011;46421;48.610;9.334;2022-07-25T09:25:27;0.20;;;0.20;;
60588;SDS011;46421;48.610;9.334;2022-07-25T09:27:53;0.20;;;0.20;;
60588;SDS011;46421;48.610;9.334;2022-07-25T09:30:18;0.30;;;0.30;;
60588;SDS011;46421;48.610;9.334;2022-07-25T09:32:44;0.40;;;0.40;;
60588;SDS011;46421;48.610;9.334;2022-07-25T09:35:10;0.30;;;0.30;;
60588;SDS011;46421;48.610;9.334;2022-07-25T09:37:35;0.20;;;0.20;;
60588;SDS011;46421;48.610;9.334;2022-07-25T09:40:01;0.28;;;0.28;;
60588;SDS011;46421;48.610;9.334;2022-07-25T09:42:38;0.40;;;0.40;;
60588;SDS011;46421;48.610;9.334;2022-07-25T09:45:05;0.30;;;0.30;;
60588;SDS011;46421;48.610;9.334;2022-07-25T09:47:32;0.30;;;0.30;;
60588;SDS011;46421;48.610;9.334;2022-07-25T09:49:59;0.30;;;0.30;;
60588;SDS011;46421;48.610;9.334;2022-07-25T09:52:25;0.20;;;0.20;;
60588;SDS011;46421;48.610;9.334;2022-07-25T09:54:50;0.20;;;0.20;;
60588;SDS011;46421;48.610;9.334;2022-07-25T09:57:15;0.23;;;0.23;;
60588;SDS011;46421;48.610;9.334;2022-07-25T09:59:41;0.20;;;0.20;;
60588;SDS011;46421;48.610;9.334;2022-07-25T10:02:20;0.30;;;0.30;;
60588;SDS011;46421;48.610;9.334;2022-07-25T10:05:29;0.20;;;0.20;;
60588;SDS011;46421;48.610;9.334;2022-07-25T10:08:04;0.20;;;0.20;;
60588;SDS011;46421;48.610;9.334;2022-07-25T10:10:35;0.30;;;0.30;;
60588;SDS011;46421;48.610;9.334;2022-07-25T10:13:05;0.28;;;0.28;;
60588;SDS011;46421;48.610;9.334;2022-07-25T10:15:38;0.20;;;0.20;;
60588;SDS011;46421;48.610;9.334;2022-07-25T10:18:07;0.20;;;0.20;;
60588;SDS011;46421;48.610;9.334;2022-07-25T10:20:32;0.20;;;0.20;;
60588;SDS011;46421;48.610;9.334;2022-07-25T10:22:58;0.20;;;0.20;;
60588;SDS011;46421;48.610;9.334;2022-07-25T10:25:24;0.25;;;0.25;;
60588;SDS011;46421;48.610;9.334;2022-07-25T10:27:51;0.30;;;0.30;;
60588;SDS011;46421;48.610;9.334;2022-07-25T10:30:32;0.20;;;0.20;;
60588;SDS011;46421;48.610;9.334;2022-07-25T10:33:04;0.20;;;0.20;;
60588;SDS011;46421;48.610;9.334;2022-07-25T10:35:35;0.20;;;0.20;;
60588;SDS011;46421;48.610;9.334;2022-07-25T10:38:02;0.15;;;0.15;;
60588;SDS011;46421;48.610;9.334;2022-07-25T10:40:32;0.20;;;0.20;;
60588;SDS011;46421;48.610;9.334;2022-07-25T10:45:57;0.15;;;0.15;;
60588;SDS011;46421;48.610;9.334;2022-07-25T10:48:23;0.20;;;0.20;;
60588;SDS011;46421;48.610;9.334;2022-07-25T10:51:04;0.20;;;0.20;;
60588;SDS011;46421;48.610;9.334;2022-07-25T10:53:38;0.22;;;0.22;;
60588;SDS011;46421;48.610;9.334;2022-07-25T10:56:16;0.20;;;0.20;;
60588;SDS011;46421;48.610;9.334;2022-07-25T10:58:50;0.20;;;0.20;;
60588;SDS011;46421;48.610;9.334;2022-07-25T11:01:26;0.10;;;0.10;;
60588;SDS011;46421;48.610;9.334;2022-07-25T11:03:54;0.20;;;0.20;;
60588;SDS011;46421;48.610;9.334;2022-07-25T11:06:31;0.10;;;0.10;;
60588;SDS011;46421;48.610;9.334;2022-07-25T11:09:00;0.17;;;0.17;;
60588;SDS011;46421;48.610;9.334;2022-07-25T11:11:34;0.20;;;0.20;;
60588;SDS011;46421;48.610;9.334;2022-07-25T11:14:01;0.10;;;0.10;;
60588;SDS011;46421;48.610;9.334;2022-07-25T11:16:28;0.20;;;0.20;;
60588;SDS011;46421;48.610;9.334;2022-07-25T11:18:53;0.20;;;0.20;;
60588;SDS011;46421;48.610;9.334;2022-07-25T11:21:19;0.20;;;0.20;;
60588;SDS011;46421;48.610;9.334;2022-07-25T11:23:48;0.10;;;0.10;;
60588;SDS011;46421;48.610;9.334;2022-07-25T11:26:15;0.10;;;0.10;;
60588;SDS011;46421;48.610;9.334;2022-07-25T11:28:41;0.10;;;0.10;;
60588;SDS011;46421;48.610;9.334;2022-07-25T11:31:11;0.10;;;0.10;;
60588;SDS011;46421;48.610;9.334;2022-07-25T11:33:37;0.10;;;0.10;;
60588;SDS011;46421;48.610;9.334;2022-07-25T11:36:04;0.10;;;0.10;;
60588;SDS011;46421;48.610;9.334;2022-07-25T11:38:29;0.10;;;0.10;;
60588;SDS011;46421;48.610;9.334;2022-07-25T11:40:55;0.10;;;0.10;;
60588;SDS011;46421;48.610;9.334;2022-07-25T11:43:21;0.10;;;0.10;;
60588;SDS011;46421;48.610;9.334;2022-07-25T11:48:28;0.17;;;0.17;;
60588;SDS011;46421;48.610;9.334;2022-07-25T11:51:08;0.10;;;0.10;;
60588;SDS011;46421;48.610;9.334;2022-07-25T11:53:41;0.20;;;0.20;;
60588;SDS011;46421;48.610;9.334;2022-07-25T11:56:20;0.10;;;0.10;;
60588;SDS011;46421;48.610;9.334;2022-07-25T11:58:59;0.10;;;0.10;;
60588;SDS011;46421;48.610;9.334;2022-07-25T12:01:32;0.20;;;0.20;;
60588;SDS011;46421;48.610;9.334;2022-07-25T12:04:09;0.20;;;0.20;;
60588;SDS011;46421;48.610;9.334;2022-07-25T12:06:45;0.10;;;0.10;;
60588;SDS011;46421;48.610;9.334;2022-07-25T12:09:13;0.10;;;0.10;;
60588;SDS011;46421;48.610;9.334;2022-07-25T12:11:43;0.10;;;0.10;;
60588;SDS011;46421;48.610;9.334;2022-07-25T12:14:09;0.10;;;0.10;;
60588;SDS011;46421;48.610;9.334;2022-07-25T12:16:35;0.10;;;0.10;;
60588;SDS011;46421;48.610;9.334;2022-07-25T12:19:01;0.10;;;0.10;;
60588;SDS011;46421;48.610;9.334;2022-07-25T12:21:28;0.20;;;0.20;;
60588;SDS011;46421;48.610;9.334;2022-07-25T12:23:54;0.10;;;0.10;;
60588;SDS011;46421;48.610;9.334;2022-07-25T12:26:19;0.20;;;0.20;;
60588;SDS011;46421;48.610;9.334;2022-07-25T12:28:44;0.20;;;0.20;;
60588;SDS011;46421;48.610;9.334;2022-07-25T12:31:09;0.10;;;0.10;;
60588;SDS011;46421;48.610;9.334;2022-07-25T12:33:35;0.10;;;0.10;;
60588;SDS011;46421;48.610;9.334;2022-07-25T12:36:01;0.10;;;0.10;;
60588;SDS011;46421;48.610;9.334;2022-07-25T12:38:27;0.10;;;0.10;;
60588;SDS011;46421;48.610;9.334;2022-07-25T12:40:52;0.22;;;0.20;;
60588;SDS011;46421;48.610;9.334;2022-07-25T12:43:18;0.10;;;0.10;;
60588;SDS011;46421;48.610;9.334;2022-07-25T12:45:44;0.10;;;0.10;;
60588;SDS011;46421;48.610;9.334;2022-07-25T12:48:11;0.07;;;0.07;;
60588;SDS011;46421;48.610;9.334;2022-07-25T12:50:37;0.00;;;0.00;;
60588;SDS011;46421;48.610;9.334;2022-07-25T12:53:02;0.20;;;0.20;;
60588;SDS011;46421;48.610;9.334;2022-07-25T12:55:28;0.20;;;0.20;;
60588;SDS011;46421;48.610;9.334;2022-07-25T12:57:53;0.10;;;0.10;;
60588;SDS011;46421;48.610;9.334;2022-07-25T13:00:19;0.10;;;0.10;;
60588;SDS011;46421;48.610;9.334;2022-07-25T13:02:46;0.10;;;0.10;;
60588;SDS011;46421;48.610;9.334;2022-07-25T13:05:12;0.10;;;0.10;;
60588;SDS011;46421;48.610;9.334;2022-07-25T13:07:37;0.10;;;0.10;;
60588;SDS011;46421;48.610;9.334;2022-07-25T13:10:03;0.10;;;0.10;;
60588;SDS011;46421;48.610;9.334;2022-07-25T13:12:30;0.10;;;0.10;;
60588;SDS011;46421;48.610;9.334;2022-07-25T13:14:55;0.13;;;0.13;;
60588;SDS011;46421;48.610;9.334;2022-07-25T13:17:20;0.10;;;0.10;;
60588;SDS011;46421;48.610;9.334;2022-07-25T13:19:46;0.10;;;0.10;;
60588;SDS011;46421;48.610;9.334;2022-07-25T13:22:11;0.10;;;0.10;;
60588;SDS011;46421;48.610;9.334;2022-07-25T13:24:37;0.10;;;0.10;;
60588;SDS011;46421;48.610;9.334;2022-07-25T13:27:03;0.10;;;0.10;;
60588;SDS011;46421;48.610;9.334;2022-07-25T13:29:28;0.10;;;0.10;;
60588;SDS011;46421;48.610;9.334;2022-07-25T13:31:54;0.08;;;0.08;;
60588;SDS011;46421;48.610;9.334;2022-07-25T13:34:19;0.10;;;0.10;;
60588;SDS011;46421;48.610;9.334;2022-07-25T13:36:45;0.10;;;0.10;;
60588;SDS011;46421;48.610;9.334;2022-07-25T13:39:10;0.10;;;0.10;;
60588;SDS011;46421;48.610;9.334;2022-07-25T13:41:35;0.10;;;0.10;;
60588;SDS011;46421;48.610;9.334;2022-07-25T13:44:01;0.10;;;0.10;;
60588;SDS011;46421;48.610;9.334;2022-07-25T13:46:26;0.00;;;0.00;;
60588;SDS011;46421;48.610;9.334;2022-07-25T13:48:51;0.00;;;0.00;;
60588;SDS011;46421;48.610;9.334;2022-07-25T13:51:18;0.10;;;0.10;;
60588;SDS011;46421;48.610;9.334;2022-07-25T13:53:43;0.10;;;0.10;;
60588;SDS011;46421;48.610;9.334;2022-07-25T13:56:09;0.00;;;0.00;;
60588;SDS011;46421;48.610;9.334;2022-07-25T13:58:35;0.05;;;0.05;;
60588;SDS011;46421;48.610;9.334;2022-07-25T14:01:00;0.00;;;0.00;;
60588;SDS011;46421;48.610;9.334;2022-07-25T14:03:25;0.00;;;0.00;;
60588;SDS011;46421;48.610;9.334;2022-07-25T14:05:51;0.07;;;0.07;;
60588;SDS011;46421;48.610;9.334;2022-07-25T14:08:16;0.00;;;0.00;;
60588;SDS011;46421;48.610;9.334;2022-07-25T14:10:42;0.00;;;0.00;;
60588;SDS011;46421;48.610;9.334;2022-07-25T14:13:08;0.00;;;0.00;;
60588;SDS011;46421;48.610;9.334;2022-07-25T14:15:33;0.00;;;0.00;;
60588;SDS011;46421;48.610;9.334;2022-07-25T14:17:58;0.07;;;0.07;;
60588;SDS011;46421;48.610;9.334;2022-07-25T14:20:24;0.10;;;0.10;;
60588;SDS011;46421;48.610;9.334;2022-07-25T14:22:49;0.10;;;0.10;;
60588;SDS011;46421;48.610;9.334;2022-07-25T14:25:14;0.10;;;0.10;;
60588;SDS011;46421;48.610;9.334;2022-07-25T14:27:40;0.00;;;0.00;;
60588;SDS011;46421;48.610;9.334;2022-07-25T14:30:05;0.00;;;0.00;;
60588;SDS011;46421;48.610;9.334;2022-07-25T14:32:32;0.00;;;0.00;;
60588;SDS011;46421;48.610;9.334;2022-07-25T14:34:57;0.00;;;0.00;;
60588;SDS011;46421;48.610;9.334;2022-07-25T14:37:22;0.07;;;0.07;;
60588;SDS011;46421;48.610;9.334;2022-07-25T14:39:48;0.00;;;0.00;;
60588;SDS011;46421;48.610;9.334;2022-07-25T14:42:14;0.05;;;0.05;;
60588;SDS011;46421;48.610;9.334;2022-07-25T14:44:39;0.00;;;0.00;;
60588;SDS011;46421;48.610;9.334;2022-07-25T14:47:05;0.00;;;0.00;;
60588;SDS011;46421;48.610;9.334;2022-07-25T14:49:31;0.00;;;0.00;;
60588;SDS011;46421;48.610;9.334;2022-07-25T14:51:56;0.00;;;0.00;;